createdAt,value
2022-09-17T00:00:22.169Z,0.60
2022-09-17T00:02:54.729Z,0.55
2022-09-17T00:05:24.015Z,0.60
2022-09-17T00:07:52.170Z,0.50
2022-09-17T00:10:20.424Z,0.52
2022-09-17T00:12:48.201Z,0.68
2022-09-17T00:15:15.727Z,0.60
2022-09-17T00:17:43.163Z,0.60
2022-09-17T00:20:10.830Z,0.65
2022-09-17T00:22:38.924Z,0.85
2022-09-17T00:25:06.845Z,0.60
2022-09-17T00:27:34.019Z,0.85
2022-09-17T00:30:01.483Z,0.70
2022-09-17T00:32:28.739Z,0.50
2022-09-17T00:34:55.988Z,0.60
2022-09-17T00:37:23.381Z,0.70
2022-09-17T00:39:50.612Z,0.80
2022-09-17T00:42:18.376Z,0.65
2022-09-17T00:44:47.023Z,0.60
2022-09-17T00:47:34.441Z,0.77
2022-09-17T00:50:13.671Z,0.75
2022-09-17T00:52:43.361Z,0.75
2022-09-17T00:55:17.775Z,0.60
2022-09-17T00:57:46.009Z,0.57
2022-09-17T01:00:17.254Z,0.60
2022-09-17T01:02:44.715Z,0.65
2022-09-17T01:05:12.751Z,0.70
2022-09-17T01:07:44.984Z,0.70
2022-09-17T01:10:25.979Z,0.75
2022-09-17T01:13:04.829Z,1.00
2022-09-17T01:15:32.073Z,0.82
2022-09-17T01:18:19.114Z,0.60
2022-09-17T01:21:09.761Z,0.80
2022-09-17T01:23:37.668Z,0.68
2022-09-17T01:26:27.751Z,0.80
2022-09-17T01:29:13.791Z,0.73
2022-09-17T01:31:46.511Z,0.85
2022-09-17T01:34:19.246Z,0.57
2022-09-17T01:36:55.553Z,0.68
2022-09-17T01:39:22.764Z,0.90
2022-09-17T01:42:25.352Z,0.70
2022-09-17T01:45:04.766Z,0.80
2022-09-17T01:47:43.677Z,0.88
2022-09-17T01:50:17.355Z,0.70
2022-09-17T01:52:46.810Z,1.00
2022-09-17T01:55:15.876Z,0.68
2022-09-17T01:57:48.818Z,0.85
2022-09-17T02:00:17.490Z,0.55
2022-09-17T02:02:56.992Z,0.88
2022-09-17T02:05:35.656Z,0.70
2022-09-17T02:08:13.700Z,0.93
2022-09-17T02:10:55.590Z,0.80
2022-09-17T02:13:24.292Z,0.80
2022-09-17T02:16:13.368Z,0.90
2022-09-17T02:18:55.625Z,1.10
2022-09-17T02:21:41.495Z,0.80
2022-09-17T02:24:13.420Z,0.90
2022-09-17T02:26:43.482Z,0.80
2022-09-17T02:29:14.998Z,1.17
2022-09-17T02:31:42.507Z,1.00
2022-09-17T02:34:10.267Z,1.15
2022-09-17T02:36:37.429Z,0.80
2022-09-17T02:39:05.253Z,0.70
2022-09-17T02:41:37.471Z,0.90
2022-09-17T02:44:25.032Z,0.70
2022-09-17T02:47:03.345Z,1.13
2022-09-17T02:49:30.511Z,0.88
2022-09-17T02:52:16.628Z,0.65
2022-09-17T02:54:51.112Z,0.70
2022-09-17T02:57:23.226Z,1.00
2022-09-17T02:59:59.271Z,0.90
2022-09-17T03:02:32.838Z,0.70
2022-09-17T03:05:00.609Z,1.00
2022-09-17T03:07:29.178Z,0.60
2022-09-17T03:09:56.352Z,0.80
2022-09-17T03:12:24.791Z,0.75
2022-09-17T03:14:52.020Z,1.02
2022-09-17T03:17:19.306Z,1.00
2022-09-17T03:19:46.487Z,0.90
2022-09-17T03:22:13.771Z,0.88
2022-09-17T03:24:41.051Z,1.10
2022-09-17T03:27:08.227Z,0.70
2022-09-17T03:29:35.480Z,1.10
2022-09-17T03:32:02.816Z,0.98
2022-09-17T03:34:30.015Z,0.85
2022-09-17T03:36:56.939Z,1.05
2022-09-17T03:39:24.119Z,0.70
2022-09-17T03:41:51.323Z,1.08
2022-09-17T03:44:19.446Z,0.85
2022-09-17T03:46:46.879Z,0.90
2022-09-17T03:49:13.685Z,1.08
2022-09-17T03:51:40.868Z,0.70
2022-09-17T03:54:07.879Z,0.77
2022-09-17T03:56:35.036Z,0.68
2022-09-17T03:59:02.543Z,0.90
2022-09-17T04:01:29.812Z,1.98
2022-09-17T04:03:57.338Z,1.10
2022-09-17T04:06:24.545Z,0.77
2022-09-17T04:08:51.896Z,1.05
2022-09-17T04:11:19.075Z,1.00
2022-09-17T04:13:46.370Z,1.10
2022-09-17T04:16:13.597Z,1.17
2022-09-17T04:18:41.188Z,0.73
2022-09-17T04:21:08.398Z,1.00
2022-09-17T04:23:35.620Z,1.00
2022-09-17T04:26:02.778Z,0.88
2022-09-17T04:28:29.936Z,0.75
2022-09-17T04:30:57.737Z,1.27
2022-09-17T04:33:24.559Z,1.17
2022-09-17T04:35:51.783Z,1.30
2022-09-17T04:38:20.615Z,0.90
2022-09-17T04:40:47.844Z,1.20
2022-09-17T04:43:14.856Z,1.13
2022-09-17T04:45:42.040Z,1.42
2022-09-17T04:48:08.872Z,0.80
2022-09-17T04:50:36.136Z,0.90
2022-09-17T04:53:04.686Z,1.27
2022-09-17T04:55:32.347Z,1.10
2022-09-17T04:57:59.412Z,1.15
2022-09-17T05:00:26.957Z,1.10
2022-09-17T05:02:55.075Z,0.98
2022-09-17T05:05:22.780Z,1.10
2022-09-17T05:07:50.021Z,0.85
2022-09-17T05:10:18.822Z,0.98
2022-09-17T05:12:49.762Z,1.10
2022-09-17T05:15:17.297Z,1.20
2022-09-17T05:17:44.442Z,0.88
2022-09-17T05:20:12.320Z,1.23
2022-09-17T05:22:46.565Z,0.90
2022-09-17T05:25:14.582Z,1.08
2022-09-17T05:27:41.800Z,1.00
2022-09-17T05:30:09.657Z,1.45
2022-09-17T05:32:37.398Z,1.00
2022-09-17T05:35:05.892Z,1.10
2022-09-17T05:37:33.482Z,0.90
2022-09-17T05:40:01.084Z,0.70
2022-09-17T05:42:28.354Z,1.02
2022-09-17T05:44:55.583Z,1.35
2022-09-17T05:47:22.758Z,0.80
2022-09-17T05:49:50.048Z,1.10
2022-09-17T05:52:17.264Z,0.90
2022-09-17T05:54:44.782Z,0.95
2022-09-17T05:57:12.116Z,1.00
2022-09-17T05:59:39.389Z,1.08
2022-09-17T06:02:06.884Z,1.30
2022-09-17T06:04:35.200Z,0.90
2022-09-17T06:07:06.565Z,1.20
2022-09-17T06:09:36.260Z,1.27
2022-09-17T06:12:03.984Z,1.08
2022-09-17T06:14:31.428Z,0.82
2022-09-17T06:16:58.697Z,0.88
2022-09-17T06:19:26.005Z,0.90
2022-09-17T06:21:53.234Z,1.00
2022-09-17T06:24:20.446Z,0.98
2022-09-17T06:26:47.651Z,1.05
2022-09-17T06:29:15.439Z,1.13
2022-09-17T06:31:46.166Z,1.15
2022-09-17T06:34:13.617Z,0.93
2022-09-17T06:36:40.821Z,0.90
2022-09-17T06:39:08.245Z,1.08
2022-09-17T06:41:37.219Z,0.95
2022-09-17T06:44:04.811Z,1.13
2022-09-17T06:46:32.093Z,0.93
2022-09-17T06:48:59.353Z,0.98
2022-09-17T06:51:26.703Z,1.30
2022-09-17T06:53:53.860Z,1.02
2022-09-17T06:56:21.031Z,1.00
2022-09-17T06:58:48.191Z,1.20
2022-09-17T07:01:15.189Z,1.50
2022-09-17T07:03:43.457Z,1.25
2022-09-17T07:06:11.055Z,1.30
2022-09-17T07:08:39.002Z,1.42
2022-09-17T07:11:06.701Z,1.23
2022-09-17T07:13:33.777Z,1.30
2022-09-17T07:16:02.676Z,1.20
2022-09-17T07:18:30.081Z,1.50
2022-09-17T07:21:01.477Z,1.33
2022-09-17T07:23:30.067Z,1.15
2022-09-17T07:26:02.569Z,1.65
2022-09-17T07:28:29.832Z,1.67
2022-09-17T07:30:57.346Z,1.25
2022-09-17T07:33:27.721Z,1.50
2022-09-17T07:35:58.534Z,1.23
2022-09-17T07:38:26.176Z,1.42
2022-09-17T07:41:22.870Z,1.58
2022-09-17T07:43:56.615Z,1.40
2022-09-17T07:46:23.401Z,1.17
2022-09-17T07:48:50.767Z,1.27
2022-09-17T07:51:22.246Z,2.33
2022-09-17T07:53:51.772Z,1.40
2022-09-17T07:56:19.044Z,1.20
2022-09-17T07:58:46.241Z,1.42
2022-09-17T08:01:16.446Z,1.30
2022-09-17T08:03:47.749Z,1.00
2022-09-17T08:06:17.749Z,1.33
2022-09-17T08:08:44.995Z,1.77
2022-09-17T08:11:12.894Z,1.30
2022-09-17T08:13:40.108Z,1.65
2022-09-17T08:16:09.731Z,1.73
2022-09-17T08:18:37.169Z,1.25
2022-09-17T08:21:05.937Z,1.75
2022-09-17T08:23:35.996Z,1.60
2022-09-17T08:26:03.979Z,1.58
2022-09-17T08:28:31.910Z,1.40
2022-09-17T08:31:03.966Z,1.30
2022-09-17T08:33:35.839Z,1.90
2022-09-17T08:36:03.170Z,1.33
2022-09-17T08:38:38.048Z,1.60
2022-09-17T08:41:06.000Z,1.55
2022-09-17T08:43:55.184Z,1.45
2022-09-17T08:46:23.771Z,1.63
2022-09-17T08:49:13.922Z,1.60
2022-09-17T08:51:49.113Z,1.35
2022-09-17T08:54:40.552Z,1.33
2022-09-17T08:57:38.908Z,1.38
2022-09-17T09:00:18.695Z,1.42
2022-09-17T09:03:11.567Z,1.63
2022-09-17T09:05:45.482Z,1.52
2022-09-17T09:08:19.519Z,1.00
2022-09-17T09:10:51.775Z,1.33
2022-09-17T09:13:22.271Z,1.73
2022-09-17T09:16:27.860Z,1.60
2022-09-17T09:19:00.484Z,1.15
2022-09-17T09:21:39.446Z,1.33
2022-09-17T09:24:17.339Z,1.80
2022-09-17T09:26:47.904Z,1.15
2022-09-17T09:29:42.123Z,1.00
2022-09-17T09:32:30.692Z,1.25
2022-09-17T09:35:00.844Z,1.35
2022-09-17T09:37:35.197Z,1.10
2022-09-17T09:40:28.457Z,1.20
2022-09-17T09:42:59.905Z,1.40
2022-09-17T09:46:05.392Z,1.20
2022-09-17T09:48:45.326Z,1.38
2022-09-17T09:51:36.912Z,1.08
2022-09-17T09:54:03.645Z,1.13
2022-09-17T09:56:38.708Z,1.23
2022-09-17T09:59:11.082Z,1.42
2022-09-17T10:01:42.877Z,1.27
2022-09-17T10:04:22.731Z,1.00
2022-09-17T10:06:52.076Z,1.10
2022-09-17T10:09:21.965Z,1.20
2022-09-17T10:12:03.903Z,0.95
2022-09-17T10:14:36.107Z,1.13
2022-09-17T10:17:22.486Z,1.00
2022-09-17T10:20:19.439Z,1.25
2022-09-17T10:22:50.065Z,0.93
2022-09-17T10:25:33.967Z,0.63
2022-09-17T10:28:16.915Z,0.80
2022-09-17T10:30:56.748Z,0.80
2022-09-17T10:33:29.190Z,0.80
2022-09-17T10:35:59.940Z,1.15
2022-09-17T10:38:32.752Z,0.75
2022-09-17T10:41:13.507Z,0.90
2022-09-17T10:43:41.484Z,0.70
2022-09-17T10:46:15.711Z,0.57
2022-09-17T10:48:54.029Z,0.93
2022-09-17T10:51:24.095Z,0.80
2022-09-17T10:54:09.181Z,0.80
2022-09-17T10:56:39.983Z,0.65
2022-09-17T10:59:39.571Z,0.75
2022-09-17T11:02:12.162Z,0.90
2022-09-17T11:05:06.164Z,0.80
2022-09-17T11:07:39.648Z,0.85
2022-09-17T11:10:06.847Z,0.93
2022-09-17T11:12:34.061Z,1.13
2022-09-17T11:15:01.254Z,0.82
2022-09-17T11:17:38.467Z,1.20
2022-09-17T11:20:33.179Z,1.10
2022-09-17T11:23:13.150Z,0.90
2022-09-17T11:26:02.936Z,1.02
2022-09-17T11:28:41.577Z,0.95
2022-09-17T11:31:40.474Z,0.82
2022-09-17T11:34:34.054Z,1.23
2022-09-17T11:37:20.123Z,0.98
2022-09-17T11:39:55.158Z,1.00
2022-09-17T11:42:29.566Z,0.70
2022-09-17T11:45:02.655Z,0.88
2022-09-17T11:47:41.328Z,0.95
2022-09-17T11:50:09.208Z,0.88
2022-09-17T11:52:41.831Z,0.80
2022-09-17T11:55:47.333Z,0.88
2022-09-17T11:58:55.722Z,0.75
2022-09-17T12:01:41.989Z,0.70
2022-09-17T12:04:32.587Z,1.00
2022-09-17T12:07:21.994Z,1.10
2022-09-17T12:10:00.629Z,1.08
2022-09-17T12:12:48.979Z,0.82
2022-09-17T12:15:22.603Z,1.80
2022-09-17T12:18:31.690Z,1.20
2022-09-17T12:21:02.642Z,0.68
2022-09-17T12:23:49.882Z,1.70
2022-09-17T12:26:24.482Z,0.93
2022-09-17T12:29:16.779Z,0.95
2022-09-17T12:32:07.350Z,1.30
2022-09-17T12:34:54.560Z,0.80
2022-09-17T12:37:34.135Z,1.17
2022-09-17T12:40:18.634Z,1.20
2022-09-17T12:43:10.332Z,1.20
2022-09-17T12:46:09.408Z,0.95
2022-09-17T12:48:47.252Z,1.00
2022-09-17T12:51:59.315Z,1.10
2022-09-17T12:55:03.583Z,1.08
2022-09-17T12:57:42.358Z,0.98
2022-09-17T13:00:13.313Z,0.68
2022-09-17T13:03:13.263Z,0.80
2022-09-17T13:05:50.266Z,0.90
2022-09-17T13:08:17.474Z,0.90
2022-09-17T13:11:11.892Z,1.00
2022-09-17T13:14:09.237Z,1.00
2022-09-17T13:17:13.725Z,1.42
2022-09-17T13:20:02.399Z,0.68
2022-09-17T13:22:43.053Z,0.75
2022-09-17T13:25:13.283Z,0.85
2022-09-17T13:27:41.202Z,0.60
2022-09-17T13:30:11.004Z,1.00
2022-09-17T13:32:41.232Z,1.00
2022-09-17T13:35:17.006Z,0.55
2022-09-17T13:37:52.889Z,0.70
2022-09-17T13:40:32.262Z,0.77
2022-09-17T13:43:07.849Z,0.57
2022-09-17T13:45:54.148Z,0.60
2022-09-17T13:48:24.850Z,0.80
2022-09-17T13:50:53.074Z,0.80
2022-09-17T13:53:26.805Z,0.60
2022-09-17T13:55:56.965Z,0.60
2022-09-17T13:58:28.660Z,0.47
2022-09-17T14:01:06.656Z,0.68
2022-09-17T14:03:34.197Z,0.68
2022-09-17T14:06:14.673Z,0.50
2022-09-17T14:08:44.816Z,0.73
2022-09-17T14:11:32.528Z,0.70
2022-09-17T14:14:05.549Z,0.40
2022-09-17T14:16:50.174Z,0.52
2022-09-17T14:19:17.429Z,0.52
2022-09-17T14:22:04.865Z,0.30
2022-09-17T14:24:32.041Z,0.88
2022-09-17T14:27:04.899Z,0.57
2022-09-17T14:30:02.847Z,1.52
2022-09-17T14:32:48.408Z,0.32
2022-09-17T14:35:20.171Z,0.50
2022-09-17T14:37:57.166Z,0.50
2022-09-17T14:40:25.419Z,0.40
2022-09-17T14:42:55.206Z,0.60
2022-09-17T14:45:25.180Z,0.40
2022-09-17T14:48:17.521Z,0.70
2022-09-17T14:50:45.059Z,0.52
2022-09-17T14:53:16.194Z,0.50
2022-09-17T14:55:43.674Z,0.60
2022-09-17T14:58:26.128Z,0.40
2022-09-17T15:00:53.970Z,0.40
2022-09-17T15:03:25.014Z,0.38
2022-09-17T15:05:52.330Z,0.40
2022-09-17T15:08:24.115Z,0.40
2022-09-17T15:10:54.343Z,0.40
2022-09-17T15:13:24.350Z,0.20
2022-09-17T15:15:53.123Z,0.43
2022-09-17T15:18:21.099Z,0.20
2022-09-17T15:20:48.922Z,0.43
2022-09-17T15:23:19.182Z,0.30
2022-09-17T15:25:48.988Z,0.47
2022-09-17T15:28:34.798Z,0.40
2022-09-17T15:31:02.103Z,0.40
2022-09-17T15:33:29.958Z,0.95
2022-09-17T15:36:25.175Z,0.43
2022-09-17T15:38:52.346Z,0.32
2022-09-17T15:41:23.318Z,0.60
2022-09-17T15:43:50.695Z,1.20
2022-09-17T15:46:28.523Z,0.90
2022-09-17T15:48:57.537Z,0.50
2022-09-17T15:51:29.068Z,0.55
2022-09-17T15:53:59.155Z,0.70
2022-09-17T15:56:28.808Z,0.50
2022-09-17T15:59:03.512Z,0.50
2022-09-17T16:01:31.106Z,0.60
2022-09-17T16:04:18.515Z,0.73
2022-09-17T16:07:09.016Z,0.80
2022-09-17T16:09:38.059Z,0.57
2022-09-17T16:12:05.030Z,0.60
2022-09-17T16:14:32.257Z,0.80
2022-09-17T16:16:59.729Z,0.60
2022-09-17T16:19:26.896Z,0.60
2022-09-17T16:21:54.386Z,0.60
2022-09-17T16:24:21.552Z,0.60
2022-09-17T16:26:48.817Z,0.70
2022-09-17T16:29:16.787Z,0.65
2022-09-17T16:31:44.900Z,0.50
2022-09-17T16:34:12.158Z,1.10
2022-09-17T16:36:39.487Z,0.68
2022-09-17T16:39:06.668Z,0.70
2022-09-17T16:41:33.843Z,0.80
2022-09-17T16:44:01.031Z,0.60
2022-09-17T16:46:28.381Z,0.60
2022-09-17T16:48:55.297Z,0.50
2022-09-17T16:51:22.513Z,0.55
2022-09-17T16:53:50.253Z,0.60
2022-09-17T16:56:17.465Z,0.50
2022-09-17T16:58:44.733Z,0.60
2022-09-17T17:01:15.589Z,0.60
2022-09-17T17:03:45.487Z,0.88
2022-09-17T17:06:17.179Z,0.45
2022-09-17T17:08:44.367Z,0.80
2022-09-17T17:11:11.583Z,1.02
2022-09-17T17:13:38.891Z,0.57
2022-09-17T17:16:07.427Z,0.60
2022-09-17T17:18:35.027Z,0.88
2022-09-17T17:21:09.069Z,0.70
2022-09-17T17:23:36.727Z,0.60
2022-09-17T17:26:04.318Z,0.70
2022-09-17T17:28:35.588Z,0.63
2022-09-17T17:31:04.008Z,0.60
2022-09-17T17:33:31.620Z,1.05
2022-09-17T17:36:07.609Z,3.20
2022-09-17T17:38:35.729Z,4.00
2022-09-17T17:41:07.066Z,1.98
2022-09-17T17:43:34.250Z,1.20
2022-09-17T17:46:01.867Z,0.70
2022-09-17T17:48:29.308Z,0.82
2022-09-17T17:51:01.802Z,0.85
2022-09-17T17:53:29.187Z,0.50
2022-09-17T17:55:58.197Z,0.65
2022-09-17T17:58:25.911Z,0.63
2022-09-17T18:00:53.556Z,0.45
2022-09-17T18:03:24.867Z,0.60
2022-09-17T18:06:00.677Z,0.80
2022-09-17T18:08:27.979Z,0.70
2022-09-17T18:10:56.065Z,0.70
2022-09-17T18:13:24.153Z,0.50
2022-09-17T18:15:53.049Z,0.50
2022-09-17T18:18:21.014Z,0.60
2022-09-17T18:20:48.677Z,0.60
2022-09-17T18:23:16.152Z,0.60
2022-09-17T18:25:43.489Z,0.73
2022-09-17T18:28:11.105Z,0.50
2022-09-17T18:30:38.609Z,0.65
2022-09-17T18:33:06.081Z,0.60
2022-09-17T18:35:36.049Z,0.85
2022-09-17T18:38:06.784Z,0.68
2022-09-17T18:40:34.228Z,0.60
2022-09-17T18:43:01.572Z,0.70
2022-09-17T18:45:28.958Z,0.80
2022-09-17T18:47:56.283Z,0.77
2022-09-17T18:50:23.609Z,0.63
2022-09-17T18:52:50.952Z,0.75
2022-09-17T18:55:18.446Z,0.98
2022-09-17T18:57:45.903Z,0.70
2022-09-17T19:00:13.361Z,0.60
2022-09-17T19:02:40.611Z,0.80
2022-09-17T19:05:08.190Z,1.02
2022-09-17T19:07:36.000Z,1.00
2022-09-17T19:10:03.688Z,1.10
2022-09-17T19:12:31.324Z,1.00
2022-09-17T19:14:58.587Z,0.70
2022-09-17T19:17:25.953Z,0.80
2022-09-17T19:19:53.271Z,0.80
2022-09-17T19:22:20.557Z,0.93
2022-09-17T19:24:47.839Z,0.82
2022-09-17T19:27:15.015Z,0.70
2022-09-17T19:29:42.427Z,0.90
2022-09-17T19:32:09.184Z,0.80
2022-09-17T19:34:36.373Z,0.93
2022-09-17T19:37:03.935Z,0.65
2022-09-17T19:39:31.158Z,0.82
2022-09-17T19:41:58.318Z,1.02
2022-09-17T19:44:25.696Z,0.57
2022-09-17T19:46:53.290Z,0.73
2022-09-17T19:49:20.620Z,1.10
2022-09-17T19:51:47.870Z,0.77
2022-09-17T19:54:15.106Z,0.80
2022-09-17T19:56:42.285Z,0.85
2022-09-17T19:59:09.489Z,0.77
2022-09-17T20:01:36.594Z,0.82
2022-09-17T20:04:03.607Z,0.60
2022-09-17T20:06:33.149Z,0.60
2022-09-17T20:09:00.632Z,0.60
2022-09-17T20:11:27.962Z,0.73
2022-09-17T20:14:02.862Z,0.82
2022-09-17T20:16:30.815Z,0.93
2022-09-17T20:18:58.042Z,0.77
2022-09-17T20:21:27.908Z,0.68
2022-09-17T20:23:55.742Z,0.70
2022-09-17T20:26:23.347Z,0.50
2022-09-17T20:28:51.527Z,0.80
2022-09-17T20:31:18.844Z,1.13
2022-09-17T20:33:46.576Z,0.60
2022-09-17T20:36:17.730Z,0.73
2022-09-17T20:39:10.597Z,0.68
2022-09-17T20:41:32.631Z,0.60
2022-09-17T20:43:59.864Z,0.70
2022-09-17T20:46:29.198Z,0.57
2022-09-17T20:48:57.735Z,0.45
2022-09-17T20:51:26.822Z,0.68
2022-09-17T20:53:54.145Z,0.60
2022-09-17T20:56:22.694Z,0.80
2022-09-17T20:59:14.356Z,0.60
2022-09-17T21:01:44.844Z,0.68
2022-09-17T21:04:13.718Z,0.70
2022-09-17T21:06:44.340Z,0.70
2022-09-17T21:09:15.413Z,0.57
2022-09-17T21:11:43.044Z,0.60
2022-09-17T21:14:10.718Z,0.50
2022-09-17T21:16:38.727Z,0.60
2022-09-17T21:19:07.839Z,0.55
2022-09-17T21:21:35.421Z,1.20
2022-09-17T21:24:03.400Z,1.00
2022-09-17T21:26:31.524Z,0.63
2022-09-17T21:28:58.812Z,0.68
2022-09-17T21:31:33.572Z,0.70
2022-09-17T21:34:02.108Z,0.60
2022-09-17T21:36:30.333Z,0.90
2022-09-17T21:38:58.759Z,0.60
2022-09-17T21:41:26.505Z,1.00
2022-09-17T21:43:54.124Z,0.70
2022-09-17T21:46:22.708Z,0.73
2022-09-17T21:48:51.015Z,0.80
2022-09-17T21:51:20.022Z,1.58
2022-09-17T21:53:50.561Z,0.95
2022-09-17T21:56:18.459Z,0.55
2022-09-17T21:58:46.451Z,0.90
2022-09-17T22:01:15.052Z,0.80
2022-09-17T22:03:43.192Z,1.00
2022-09-17T22:06:13.111Z,0.80
2022-09-17T22:08:40.691Z,0.50
2022-09-17T22:11:08.843Z,0.73
2022-09-17T22:13:36.304Z,0.80
2022-09-17T22:16:04.992Z,0.60
2022-09-17T22:18:33.164Z,0.65
2022-09-17T22:21:00.539Z,0.77
2022-09-17T22:23:27.967Z,1.08
2022-09-17T22:26:03.108Z,0.73
2022-09-17T22:28:30.926Z,1.00
2022-09-17T22:31:01.927Z,0.90
2022-09-17T22:33:32.304Z,0.77
2022-09-17T22:36:03.223Z,0.63
2022-09-17T22:38:30.551Z,0.90
2022-09-17T22:40:57.774Z,1.10
2022-09-17T22:43:25.750Z,0.70
2022-09-17T22:45:52.919Z,0.95
2022-09-17T22:48:20.203Z,0.77
2022-09-17T22:50:51.140Z,0.70
2022-09-17T22:53:18.715Z,0.90
2022-09-17T22:55:54.026Z,0.88
2022-09-17T22:58:23.887Z,0.80
2022-09-17T23:00:54.585Z,1.27
2022-09-17T23:03:22.592Z,1.00
2022-09-17T23:05:49.351Z,1.20
2022-09-17T23:08:16.702Z,1.17
2022-09-17T23:10:44.350Z,1.13
2022-09-17T23:13:11.982Z,0.98
2022-09-17T23:15:39.350Z,0.70
2022-09-17T23:18:07.708Z,0.95
2022-09-17T23:20:35.091Z,1.40
2022-09-17T23:23:02.013Z,0.82
2022-09-17T23:25:29.237Z,1.13
2022-09-17T23:27:56.914Z,1.00
2022-09-17T23:30:25.198Z,1.02
2022-09-17T23:32:55.910Z,0.80
2022-09-17T23:35:23.708Z,0.98
2022-09-17T23:37:51.060Z,0.80
2022-09-17T23:40:18.822Z,1.23
2022-09-17T23:42:46.098Z,1.08
2022-09-17T23:45:13.341Z,0.95
2022-09-17T23:47:40.609Z,1.10
2022-09-17T23:50:07.955Z,1.50
2022-09-17T23:52:35.134Z,1.25
2022-09-17T23:55:02.361Z,1.10
2022-09-17T23:57:30.449Z,0.95
2022-09-17T23:59:57.348Z,1.15
